Terrell, TX

6:22 PM CDT on April 21, 2015 (GMT -0500)
Mesquite Metro | | Change Station
CLOSE
Current Station
Airport
Location: Mesquite,
Elevation: 446 ft
Nearby Weather Stations

Elev 446 ft 32.75 °N, 96.53 °W | Updated 32 minutes ago

Overcast
Overcast
72 °F
Feels Like 72 °F
N
9
Wind Variable Wind from East

Today
High -- | Low -- °F
--% Chance of Precip.
Yesterday
High -- | Low -- °F
Precip. -- in
6:48 AM 7:59 PM
Waxing Crescent, 13% visible
Pressure 29.92 in
Visibility 10.0 miles
Clouds Mostly Cloudy 5500 ft
Dew Point 55 °F
Humidity 57%
Rainfall 0.00 in
Snow Depth Not available.
UV 1 out of 12
Pollen 8.00 out of 12
Air Quality Not available.
Flu Activity Local Activity
METAR KHQZ 212250Z 10008KT 10SM BKN055 22/13 A2992

More Conditions Fewer Conditions

Pressure 29.92 in
Visibility 10.0 miles
Clouds Mostly Cloudy 5500 ft
Dew Point 55 °F
Humidity 57%
Rainfall 0.00 in
Snow Depth Not available.
UV 1 out of 12
Pollen 8.00 out of 12
Air Quality Not available.
Flu Activity Local Activity
METAR KHQZ 212250Z 10008KT 10SM BKN055 22/13 A2992

More Conditions Fewer Conditions

Nowcast | as of 4:21 PM CDT on April 21, 2015

Showers and thunderstorms east of a Paris to Greenville to Emory line will continue to move east at 30 mph. Brief heavy rain and cloud to ground lightning will accompany some of these storms through 7 PM.

×

10-Day Weather Forecast

Almanac

Astronomy

Apr. 21, 2015 Rise Set
Actual Time
Civil Twilight
Nautical Twilight
Astronomical Twilight
Moon
Length of Visible Light
Length of Day
Tomorrow will be .
, % of the Moon is Illuminated

Today's Extremes

State Highs State Lows

Community

WunderPhotos

Upload Photos

1,815,579 photos uploaded!

WunderBlogs® & News

Nearby

Air Quality

  Air Quality AQ Index Pollutant
Not available.

Snow Depth

Station Depth Elevation

Earthquake Activity

City Distance Mag. Time & Date
Minimum magnitude displayed is 2.5.

Coastal Water Temperatures

Place Temperature

Stations

Nearby Weather Stations

Station Location Temp. Windchill Dew Point Humidity Wind Precip. Elev Updated Type